Jupiter, FL (33469)

8:23 AM EDT on June 22, 2017 (GMT -0400)
Jupiter | | Change Station

Elev 0 ft 26.98 °N, 80.09 °W | Updated 3 minutes ago

Partly Cloudy
Partly Cloudy
82.2 °F
Feels Like 94 °F
N
3.7
Wind Variable Wind from South
Gusts 7.5 mph

Today
High -- | Low -- °F
--% Chance of Precip.
Yesterday
High -- | Low -- °F
Precip. -- in
Pressure 30.09 in
Visibility 7.0 miles
Clouds Scattered Clouds 1700 ft
Scattered Clouds 2400 ft
Heat Index 94 °F
Dew Point 81 °F
Humidity 95%
Rainfall 0.00 in
Snow Depth Not available.
6:27 AM 8:17 PM
Waning Crescent, 4% visible
METAR KSUA 221150Z 14006KT 7SM SCT017 SCT024 28/27 A3009
Pressure 30.09 in
Visibility 7.0 miles
Clouds Scattered Clouds 1700 ft
Scattered Clouds 2400 ft
Heat Index 94 °F
Dew Point 81 °F
Humidity 95%
Rainfall 0.00 in
Snow Depth Not available.
6:27 AM 8:17 PM
Waning Crescent, 4% visible
METAR KSUA 221150Z 14006KT 7SM SCT017 SCT024 28/27 A3009

Get Severe Weather Alerts

Thanks for signing up!

Be on the lookout for a verification email in your inbox.

You'll start receiving the daily forecast at 6 AM.

×

10-Day Weather Forecast

Almanac

Astronomy

Jun. 22, 2017 Rise Set
Actual Time
Civil Twilight
Nautical Twilight
Astronomical Twilight
Moon
Length of Visible Light
Length of Day
Tomorrow will be .
, % of the Moon is Illuminated

Today's Extremes

State Highs State Lows

Community

WunderPhotos

Category 6

Welcome to Category 6. This is the collective home for Weather Underground's featured writeups by Dr. Jeff Masters (right), Bob Henson (left), Chris Burt, and other regular contributors.

Nearby

Air Quality

  Air Quality AQ Index Pollutant
Not available.

Snow Depth

Station Depth Elevation

Earthquake Activity

City Distance Mag. Time & Date
Minimum magnitude displayed is 2.5.

Coastal Water Temperatures

Place Temperature

Stations

Nearby Weather Stations

Station Location Temp. Windchill Dew Point Humidity Wind Precip. Elev Updated Type
                   

Watches & Warnings

There are currently no watches in effect.